This is the latest recevied weather packets stored in our database for station/object ES0THZ-9. If no packets are shown the sender has not sent any weather packets the latest 10 day(s).
| Time | Temp. | Humidity | Pressure | Rain* | Wind** | Luminosity | Snow |
|---|---|---|---|---|---|---|---|
| 1777353317 | 5° C | 65% | 1019.9 hPa | 0 mm | - | - | - |
| 1777347297 | 2.22° C | 75% | 1019.6 hPa | 0 mm | - | - | - |
| 1777344870 | 1.67° C | 76% | 1019.4 hPa | 0 mm | - | - | - |
| 1777342461 | 2.22° C | 76% | 1019.2 hPa | 0 mm | - | - | - |
| 1777340655 | 2.22° C | 77% | 1019.2 hPa | 0 mm | - | - | - |
| 1777337645 | 2.22° C | 77% | 1018.9 hPa | 0 mm | - | - | - |
| 1777336441 | 2.22° C | 77% | 1018.9 hPa | 0 mm | - | - | - |
| 1777331625 | 2.78° C | 78% | 1018.5 hPa | 0 mm | - | - | - |
| 1777329258 | 2.78° C | 77% | 1018.4 hPa | 0 mm | - | - | - |
| 1777327411 | 3.33° C | 77% | 1018.4 hPa | 0 mm | - | - | - |
| 1777326207 | 3.33° C | 77% | 1018.4 hPa | 0 mm | - | - | - |
| 1777320790 | 3.33° C | 75% | 1018.2 hPa | 0 mm | - | - | - |
| 1777312963 | 4.44° C | 71% | 1018.1 hPa | 0 mm | - | - | - |
| 1777312381 | 4.44° C | 70% | 1018.1 hPa | 0 mm | - | - | - |
| 1777311158 | 5° C | 68% | 1018 hPa | 0 mm | - | - | - |
| 1777303933 | 6.67° C | 64% | 1017.9 hPa | 0 mm | - | - | - |
| 1777302730 | 6.67° C | 63% | 1017.8 hPa | 0 mm | - | - | - |
| 1777299719 | 6.67° C | 64% | 1017.7 hPa | 0 mm | - | - | - |
| 1777296709 | 7.22° C | 66% | 1017.5 hPa | 0 mm | - | - | - |
| 1777293098 | 7.22° C | 68% | 1017.6 hPa | 0 mm | - | - | - |
| 1777291291 | 7.78° C | 66% | 1017.6 hPa | 0 mm | - | - | - |
| 1777290709 | 7.78° C | 65% | 1017.4 hPa | 0 mm | - | - | - |
| 1777286476 | 7.78° C | 59% | 1017.2 hPa | 0 mm | - | - | - |
| 1777272027 | 5.56° C | 63% | 1015.9 hPa | 0 mm | - | - | - |
| 1777267211 | 4.44° C | 71% | 1015 hPa | 0 mm | - | - | - |
* Rain latest hour (hover to see other rain measurements)
** Current wind speed in m/s (hover to see current wind gust speed)